sensor_id;sensor_type;location;lat;lon;timestamp;P1;durP1;ratioP1;P2;durP2;ratioP2
39032;SDS011;24794;51.982;5.878;2023-03-01T00:00:51;3.35;;;2.10;;
39032;SDS011;24794;51.982;5.878;2023-03-01T00:01:51;3.03;;;2.33;;
39032;SDS011;24794;51.982;5.878;2023-03-01T00:02:52;3.45;;;2.03;;
39032;SDS011;24794;51.982;5.878;2023-03-01T00:03:53;2.67;;;1.70;;
39032;SDS011;24794;51.982;5.878;2023-03-01T00:04:54;3.55;;;2.22;;
39032;SDS011;24794;51.982;5.878;2023-03-01T00:05:55;4.28;;;2.50;;
39032;SDS011;24794;51.982;5.878;2023-03-01T00:06:55;4.40;;;2.65;;
39032;SDS011;24794;51.982;5.878;2023-03-01T00:07:56;3.63;;;2.20;;
39032;SDS011;24794;51.982;5.878;2023-03-01T00:08:56;2.95;;;2.15;;
39032;SDS011;24794;51.982;5.878;2023-03-01T00:09:57;3.58;;;2.30;;
39032;SDS011;24794;51.982;5.878;2023-03-01T00:12:06;2.83;;;2.10;;
39032;SDS011;24794;51.982;5.878;2023-03-01T00:13:07;3.38;;;2.00;;
39032;SDS011;24794;51.982;5.878;2023-03-01T00:14:07;3.10;;;2.13;;
39032;SDS011;24794;51.982;5.878;2023-03-01T00:15:08;5.50;;;2.20;;
39032;SDS011;24794;51.982;5.878;2023-03-01T00:16:10;2.90;;;2.10;;
39032;SDS011;24794;51.982;5.878;2023-03-01T00:17:12;3.47;;;2.33;;
39032;SDS011;24794;51.982;5.878;2023-03-01T00:18:13;2.58;;;1.92;;
39032;SDS011;24794;51.982;5.878;2023-03-01T00:19:15;4.57;;;2.08;;
39032;SDS011;24794;51.982;5.878;2023-03-01T00:20:16;3.15;;;2.20;;
39032;SDS011;24794;51.982;5.878;2023-03-01T00:21:17;2.97;;;1.95;;
39032;SDS011;24794;51.982;5.878;2023-03-01T00:22:19;3.15;;;2.10;;
39032;SDS011;24794;51.982;5.878;2023-03-01T00:23:20;2.88;;;1.90;;
39032;SDS011;24794;51.982;5.878;2023-03-01T00:24:21;3.88;;;2.00;;
39032;SDS011;24794;51.982;5.878;2023-03-01T00:25:22;3.28;;;2.08;;
39032;SDS011;24794;51.982;5.878;2023-03-01T00:26:23;3.28;;;2.05;;
39032;SDS011;24794;51.982;5.878;2023-03-01T00:27:25;3.20;;;2.08;;
39032;SDS011;24794;51.982;5.878;2023-03-01T00:28:25;2.78;;;1.95;;
39032;SDS011;24794;51.982;5.878;2023-03-01T00:29:26;2.75;;;2.13;;
39032;SDS011;24794;51.982;5.878;2023-03-01T00:30:27;3.88;;;2.60;;
39032;SDS011;24794;51.982;5.878;2023-03-01T00:31:28;4.03;;;2.28;;
39032;SDS011;24794;51.982;5.878;2023-03-01T00:32:30;3.78;;;2.30;;
39032;SDS011;24794;51.982;5.878;2023-03-01T00:33:30;4.60;;;2.38;;
39032;SDS011;24794;51.982;5.878;2023-03-01T00:34:31;2.90;;;2.42;;
39032;SDS011;24794;51.982;5.878;2023-03-01T00:35:32;3.00;;;2.20;;
39032;SDS011;24794;51.982;5.878;2023-03-01T00:36:34;3.45;;;2.13;;
39032;SDS011;24794;51.982;5.878;2023-03-01T00:37:36;3.50;;;2.38;;
39032;SDS011;24794;51.982;5.878;2023-03-01T00:38:37;5.25;;;2.78;;
39032;SDS011;24794;51.982;5.878;2023-03-01T00:39:39;4.03;;;2.58;;
39032;SDS011;24794;51.982;5.878;2023-03-01T00:40:39;3.63;;;2.25;;
39032;SDS011;24794;51.982;5.878;2023-03-01T00:41:40;3.50;;;2.38;;
39032;SDS011;24794;51.982;5.878;2023-03-01T00:42:41;5.20;;;2.83;;
39032;SDS011;24794;51.982;5.878;2023-03-01T00:43:42;4.13;;;2.83;;
39032;SDS011;24794;51.982;5.878;2023-03-01T00:44:43;4.78;;;2.50;;
39032;SDS011;24794;51.982;5.878;2023-03-01T00:45:44;4.00;;;2.60;;
39032;SDS011;24794;51.982;5.878;2023-03-01T00:46:45;3.35;;;2.40;;
39032;SDS011;24794;51.982;5.878;2023-03-01T00:47:45;3.50;;;2.03;;
39032;SDS011;24794;51.982;5.878;2023-03-01T00:48:47;3.80;;;2.72;;
39032;SDS011;24794;51.982;5.878;2023-03-01T00:49:48;4.38;;;2.60;;
39032;SDS011;24794;51.982;5.878;2023-03-01T00:50:49;4.22;;;2.35;;
39032;SDS011;24794;51.982;5.878;2023-03-01T00:51:49;3.95;;;2.65;;
39032;SDS011;24794;51.982;5.878;2023-03-01T00:52:53;7.32;;;3.30;;
39032;SDS011;24794;51.982;5.878;2023-03-01T00:53:57;3.90;;;2.40;;
39032;SDS011;24794;51.982;5.878;2023-03-01T00:54:59;4.25;;;2.70;;
39032;SDS011;24794;51.982;5.878;2023-03-01T00:56:00;5.22;;;2.85;;
39032;SDS011;24794;51.982;5.878;2023-03-01T00:57:01;4.30;;;3.00;;
39032;SDS011;24794;51.982;5.878;2023-03-01T00:58:01;4.32;;;3.00;;
39032;SDS011;24794;51.982;5.878;2023-03-01T00:59:02;4.43;;;2.38;;
39032;SDS011;24794;51.982;5.878;2023-03-01T01:00:06;4.40;;;3.45;;
39032;SDS011;24794;51.982;5.878;2023-03-01T01:01:10;3.70;;;2.90;;
39032;SDS011;24794;51.982;5.878;2023-03-01T01:02:19;5.50;;;3.05;;
39032;SDS011;24794;51.982;5.878;2023-03-01T01:03:20;5.20;;;2.88;;
39032;SDS011;24794;51.982;5.878;2023-03-01T01:04:21;5.05;;;2.90;;
39032;SDS011;24794;51.982;5.878;2023-03-01T01:05:22;4.53;;;3.33;;
39032;SDS011;24794;51.982;5.878;2023-03-01T01:06:24;5.13;;;3.10;;
39032;SDS011;24794;51.982;5.878;2023-03-01T01:07:26;5.45;;;3.13;;
39032;SDS011;24794;51.982;5.878;2023-03-01T01:08:27;5.07;;;3.53;;
39032;SDS011;24794;51.982;5.878;2023-03-01T01:09:27;5.07;;;3.10;;
39032;SDS011;24794;51.982;5.878;2023-03-01T01:10:28;5.95;;;3.17;;
39032;SDS011;24794;51.982;5.878;2023-03-01T01:11:29;3.63;;;2.95;;
39032;SDS011;24794;51.982;5.878;2023-03-01T01:12:30;5.35;;;3.40;;
39032;SDS011;24794;51.982;5.878;2023-03-01T01:13:30;4.65;;;2.80;;
39032;SDS011;24794;51.982;5.878;2023-03-01T01:14:31;5.25;;;3.20;;
39032;SDS011;24794;51.982;5.878;2023-03-01T01:15:35;5.28;;;3.42;;
39032;SDS011;24794;51.982;5.878;2023-03-01T01:16:35;4.75;;;2.83;;
39032;SDS011;24794;51.982;5.878;2023-03-01T01:17:36;5.05;;;3.50;;
39032;SDS011;24794;51.982;5.878;2023-03-01T01:18:36;4.28;;;3.47;;
39032;SDS011;24794;51.982;5.878;2023-03-01T01:19:37;4.75;;;3.47;;
39032;SDS011;24794;51.982;5.878;2023-03-01T01:20:38;5.45;;;3.08;;
39032;SDS011;24794;51.982;5.878;2023-03-01T01:21:39;5.72;;;3.33;;
39032;SDS011;24794;51.982;5.878;2023-03-01T01:22:41;7.75;;;3.90;;
39032;SDS011;24794;51.982;5.878;2023-03-01T01:23:42;4.72;;;3.20;;
39032;SDS011;24794;51.982;5.878;2023-03-01T01:24:44;4.38;;;3.28;;
39032;SDS011;24794;51.982;5.878;2023-03-01T01:25:44;4.60;;;3.30;;
39032;SDS011;24794;51.982;5.878;2023-03-01T01:26:45;5.25;;;3.58;;
39032;SDS011;24794;51.982;5.878;2023-03-01T01:27:46;6.13;;;3.70;;
39032;SDS011;24794;51.982;5.878;2023-03-01T01:28:47;6.05;;;3.40;;
39032;SDS011;24794;51.982;5.878;2023-03-01T01:29:47;4.53;;;3.35;;
39032;SDS011;24794;51.982;5.878;2023-03-01T01:30:48;6.32;;;3.55;;
39032;SDS011;24794;51.982;5.878;2023-03-01T01:31:49;6.85;;;3.50;;
39032;SDS011;24794;51.982;5.878;2023-03-01T01:32:49;7.75;;;3.88;;
39032;SDS011;24794;51.982;5.878;2023-03-01T01:33:50;4.78;;;3.53;;
39032;SDS011;24794;51.982;5.878;2023-03-01T01:34:52;6.05;;;3.95;;
39032;SDS011;24794;51.982;5.878;2023-03-01T01:35:52;4.22;;;3.17;;
39032;SDS011;24794;51.982;5.878;2023-03-01T01:36:53;4.70;;;3.08;;
39032;SDS011;24794;51.982;5.878;2023-03-01T01:37:54;4.70;;;3.42;;
39032;SDS011;24794;51.982;5.878;2023-03-01T01:38:55;8.63;;;4.22;;
39032;SDS011;24794;51.982;5.878;2023-03-01T01:39:56;4.10;;;3.28;;
39032;SDS011;24794;51.982;5.878;2023-03-01T01:40:58;6.57;;;4.00;;
39032;SDS011;24794;51.982;5.878;2023-03-01T01:41:59;6.20;;;3.67;;
39032;SDS011;24794;51.982;5.878;2023-03-01T01:43:01;7.05;;;4.35;;
39032;SDS011;24794;51.982;5.878;2023-03-01T01:44:18;7.93;;;3.75;;
39032;SDS011;24794;51.982;5.878;2023-03-01T01:46:32;4.55;;;3.65;;
39032;SDS011;24794;51.982;5.878;2023-03-01T01:47:36;7.45;;;4.13;;
39032;SDS011;24794;51.982;5.878;2023-03-01T01:48:46;5.45;;;3.58;;
39032;SDS011;24794;51.982;5.878;2023-03-01T01:49:58;7.03;;;3.65;;
39032;SDS011;24794;51.982;5.878;2023-03-01T01:50:59;4.95;;;3.72;;
39032;SDS011;24794;51.982;5.878;2023-03-01T01:53:17;5.97;;;4.07;;
39032;SDS011;24794;51.982;5.878;2023-03-01T01:54:20;5.65;;;4.05;;
39032;SDS011;24794;51.982;5.878;2023-03-01T01:55:25;5.53;;;3.72;;
39032;SDS011;24794;51.982;5.878;2023-03-01T01:56:27;4.63;;;3.80;;
39032;SDS011;24794;51.982;5.878;2023-03-01T01:57:32;5.85;;;3.97;;
39032;SDS011;24794;51.982;5.878;2023-03-01T01:58:47;5.38;;;3.78;;
39032;SDS011;24794;51.982;5.878;2023-03-01T01:59:50;7.65;;;3.92;;
39032;SDS011;24794;51.982;5.878;2023-03-01T02:00:54;4.93;;;3.67;;
39032;SDS011;24794;51.982;5.878;2023-03-01T02:01:55;6.35;;;3.78;;
39032;SDS011;24794;51.982;5.878;2023-03-01T02:02:59;7.28;;;4.22;;
39032;SDS011;24794;51.982;5.878;2023-03-01T02:04:03;5.72;;;3.80;;
39032;SDS011;24794;51.982;5.878;2023-03-01T02:05:09;5.32;;;3.60;;
39032;SDS011;24794;51.982;5.878;2023-03-01T02:06:18;7.72;;;3.63;;
39032;SDS011;24794;51.982;5.878;2023-03-01T02:07:28;7.20;;;4.22;;
39032;SDS011;24794;51.982;5.878;2023-03-01T02:08:30;5.55;;;3.83;;
39032;SDS011;24794;51.982;5.878;2023-03-01T02:09:35;5.80;;;3.70;;
39032;SDS011;24794;51.982;5.878;2023-03-01T02:10:36;5.15;;;3.78;;
39032;SDS011;24794;51.982;5.878;2023-03-01T02:11:38;4.70;;;3.60;;
39032;SDS011;24794;51.982;5.878;2023-03-01T02:12:39;6.00;;;3.75;;
39032;SDS011;24794;51.982;5.878;2023-03-01T02:13:40;4.68;;;3.58;;
39032;SDS011;24794;51.982;5.878;2023-03-01T02:14:41;6.13;;;3.60;;
39032;SDS011;24794;51.982;5.878;2023-03-01T02:15:42;5.43;;;3.55;;
39032;SDS011;24794;51.982;5.878;2023-03-01T02:16:43;5.78;;;3.65;;
39032;SDS011;24794;51.982;5.878;2023-03-01T02:17:44;5.22;;;3.80;;
39032;SDS011;24794;51.982;5.878;2023-03-01T02:18:45;6.75;;;3.85;;
39032;SDS011;24794;51.982;5.878;2023-03-01T02:22:44;7.47;;;4.10;;
39032;SDS011;24794;51.982;5.878;2023-03-01T02:23:46;5.93;;;4.00;;
39032;SDS011;24794;51.982;5.878;2023-03-01T02:27:13;5.85;;;3.67;;
39032;SDS011;24794;51.982;5.878;2023-03-01T02:29:16;5.55;;;3.83;;
39032;SDS011;24794;51.982;5.878;2023-03-01T02:30:18;5.60;;;3.67;;
39032;SDS011;24794;51.982;5.878;2023-03-01T02:31:21;4.78;;;3.40;;
39032;SDS011;24794;51.982;5.878;2023-03-01T02:32:40;9.90;;;4.00;;
39032;SDS011;24794;51.982;5.878;2023-03-01T02:33:42;5.22;;;3.63;;
39032;SDS011;24794;51.982;5.878;2023-03-01T02:34:44;5.15;;;3.42;;
39032;SDS011;24794;51.982;5.878;2023-03-01T02:35:44;5.43;;;4.07;;
39032;SDS011;24794;51.982;5.878;2023-03-01T02:36:46;4.50;;;3.50;;
39032;SDS011;24794;51.982;5.878;2023-03-01T02:39:00;5.30;;;3.65;;
39032;SDS011;24794;51.982;5.878;2023-03-01T02:40:06;7.60;;;3.88;;
39032;SDS011;24794;51.982;5.878;2023-03-01T02:41:14;5.80;;;3.28;;
39032;SDS011;24794;51.982;5.878;2023-03-01T02:42:20;6.65;;;3.95;;
39032;SDS011;24794;51.982;5.878;2023-03-01T02:43:24;6.53;;;3.95;;
39032;SDS011;24794;51.982;5.878;2023-03-01T02:44:28;6.78;;;3.92;;
39032;SDS011;24794;51.982;5.878;2023-03-01T02:45:29;5.00;;;3.55;;
39032;SDS011;24794;51.982;5.878;2023-03-01T02:46:29;4.90;;;3.28;;
39032;SDS011;24794;51.982;5.878;2023-03-01T02:47:30;5.32;;;3.50;;
39032;SDS011;24794;51.982;5.878;2023-03-01T02:48:40;5.78;;;3.40;;
39032;SDS011;24794;51.982;5.878;2023-03-01T02:49:46;4.88;;;3.13;;
39032;SDS011;24794;51.982;5.878;2023-03-01T02:50:52;6.68;;;3.42;;
39032;SDS011;24794;51.982;5.878;2023-03-01T02:53:23;4.75;;;3.22;;
39032;SDS011;24794;51.982;5.878;2023-03-01T02:56:11;6.13;;;3.53;;
39032;SDS011;24794;51.982;5.878;2023-03-01T02:57:12;5.05;;;3.63;;
39032;SDS011;24794;51.982;5.878;2023-03-01T02:58:14;6.20;;;3.70;;
39032;SDS011;24794;51.982;5.878;2023-03-01T02:59:15;5.03;;;3.50;;
39032;SDS011;24794;51.982;5.878;2023-03-01T03:00:38;5.88;;;3.53;;
39032;SDS011;24794;51.982;5.878;2023-03-01T03:01:45;5.18;;;3.55;;
39032;SDS011;24794;51.982;5.878;2023-03-01T03:02:46;5.75;;;3.53;;
39032;SDS011;24794;51.982;5.878;2023-03-01T03:03:49;5.97;;;3.30;;
39032;SDS011;24794;51.982;5.878;2023-03-01T03:04:49;4.80;;;3.40;;
39032;SDS011;24794;51.982;5.878;2023-03-01T03:05:50;5.55;;;3.00;;
39032;SDS011;24794;51.982;5.878;2023-03-01T03:06:50;5.07;;;3.60;;
39032;SDS011;24794;51.982;5.878;2023-03-01T03:07:51;4.97;;;3.38;;
39032;SDS011;24794;51.982;5.878;2023-03-01T03:08:52;5.28;;;3.20;;
39032;SDS011;24794;51.982;5.878;2023-03-01T03:09:52;5.18;;;3.42;;
39032;SDS011;24794;51.982;5.878;2023-03-01T03:10:53;4.80;;;3.70;;
39032;SDS011;24794;51.982;5.878;2023-03-01T03:11:53;4.65;;;3.42;;
39032;SDS011;24794;51.982;5.878;2023-03-01T03:12:57;5.10;;;3.58;;
39032;SDS011;24794;51.982;5.878;2023-03-01T03:14:03;4.65;;;3.25;;
39032;SDS011;24794;51.982;5.878;2023-03-01T03:15:05;6.32;;;3.42;;
39032;SDS011;24794;51.982;5.878;2023-03-01T03:16:08;4.93;;;3.35;;
39032;SDS011;24794;51.982;5.878;2023-03-01T03:17:09;4.75;;;3.40;;
39032;SDS011;24794;51.982;5.878;2023-03-01T03:18:13;4.88;;;3.30;;
39032;SDS011;24794;51.982;5.878;2023-03-01T03:19:17;4.60;;;3.28;;
39032;SDS011;24794;51.982;5.878;2023-03-01T03:20:20;6.20;;;3.53;;
39032;SDS011;24794;51.982;5.878;2023-03-01T03:21:23;5.63;;;3.70;;
39032;SDS011;24794;51.982;5.878;2023-03-01T03:22:23;7.38;;;3.65;;
39032;SDS011;24794;51.982;5.878;2023-03-01T03:23:24;6.30;;;3.28;;
39032;SDS011;24794;51.982;5.878;2023-03-01T03:24:25;7.82;;;3.83;;
39032;SDS011;24794;51.982;5.878;2023-03-01T03:25:26;5.28;;;3.60;;
39032;SDS011;24794;51.982;5.878;2023-03-01T03:26:28;4.80;;;3.47;;
39032;SDS011;24794;51.982;5.878;2023-03-01T03:27:28;5.32;;;3.72;;
39032;SDS011;24794;51.982;5.878;2023-03-01T03:28:29;5.25;;;3.35;;
39032;SDS011;24794;51.982;5.878;2023-03-01T03:29:34;6.10;;;3.22;;
39032;SDS011;24794;51.982;5.878;2023-03-01T03:30:35;4.82;;;3.05;;
39032;SDS011;24794;51.982;5.878;2023-03-01T03:31:41;4.88;;;3.13;;
39032;SDS011;24794;51.982;5.878;2023-03-01T03:32:42;5.20;;;3.53;;
39032;SDS011;24794;51.982;5.878;2023-03-01T03:33:52;5.97;;;3.47;;
39032;SDS011;24794;51.982;5.878;2023-03-01T03:34:52;6.45;;;3.35;;
39032;SDS011;24794;51.982;5.878;2023-03-01T03:35:53;5.88;;;3.35;;
39032;SDS011;24794;51.982;5.878;2023-03-01T03:36:54;5.28;;;3.13;;
39032;SDS011;24794;51.982;5.878;2023-03-01T03:38:00;5.72;;;3.47;;
39032;SDS011;24794;51.982;5.878;2023-03-01T03:39:06;5.55;;;3.03;;
39032;SDS011;24794;51.982;5.878;2023-03-01T03:40:06;6.75;;;3.38;;
39032;SDS011;24794;51.982;5.878;2023-03-01T03:41:15;4.65;;;2.95;;
39032;SDS011;24794;51.982;5.878;2023-03-01T03:42:16;4.57;;;3.05;;
39032;SDS011;24794;51.982;5.878;2023-03-01T03:43:18;4.90;;;3.03;;
39032;SDS011;24794;51.982;5.878;2023-03-01T03:44:20;5.43;;;2.88;;
39032;SDS011;24794;51.982;5.878;2023-03-01T03:45:21;3.20;;;2.67;;
39032;SDS011;24794;51.982;5.878;2023-03-01T03:46:22;4.32;;;2.92;;
39032;SDS011;24794;51.982;5.878;2023-03-01T03:47:23;5.00;;;3.35;;
39032;SDS011;24794;51.982;5.878;2023-03-01T03:48:23;4.38;;;2.85;;
39032;SDS011;24794;51.982;5.878;2023-03-01T03:49:24;5.63;;;3.30;;
39032;SDS011;24794;51.982;5.878;2023-03-01T03:50:25;5.28;;;3.20;;
39032;SDS011;24794;51.982;5.878;2023-03-01T03:51:26;5.28;;;3.00;;
39032;SDS011;24794;51.982;5.878;2023-03-01T03:52:26;5.45;;;3.42;;
39032;SDS011;24794;51.982;5.878;2023-03-01T03:53:27;4.57;;;2.95;;
39032;SDS011;24794;51.982;5.878;2023-03-01T03:54:29;5.22;;;3.22;;
39032;SDS011;24794;51.982;5.878;2023-03-01T03:55:29;4.40;;;2.90;;
39032;SDS011;24794;51.982;5.878;2023-03-01T03:56:30;5.72;;;3.42;;
39032;SDS011;24794;51.982;5.878;2023-03-01T03:57:31;6.05;;;3.40;;
39032;SDS011;24794;51.982;5.878;2023-03-01T03:58:31;5.07;;;2.58;;
39032;SDS011;24794;51.982;5.878;2023-03-01T03:59:32;4.25;;;2.67;;
39032;SDS011;24794;51.982;5.878;2023-03-01T04:00:37;4.53;;;2.70;;
39032;SDS011;24794;51.982;5.878;2023-03-01T04:01:40;4.63;;;3.05;;
39032;SDS011;24794;51.982;5.878;2023-03-01T04:02:41;4.47;;;3.13;;
39032;SDS011;24794;51.982;5.878;2023-03-01T04:03:42;6.88;;;3.45;;
39032;SDS011;24794;51.982;5.878;2023-03-01T04:04:46;5.20;;;3.45;;
39032;SDS011;24794;51.982;5.878;2023-03-01T04:05:49;4.22;;;3.05;;
39032;SDS011;24794;51.982;5.878;2023-03-01T04:06:53;4.35;;;2.97;;
39032;SDS011;24794;51.982;5.878;2023-03-01T04:07:53;3.10;;;2.53;;
39032;SDS011;24794;51.982;5.878;2023-03-01T04:09:01;4.53;;;2.85;;
39032;SDS011;24794;51.982;5.878;2023-03-01T04:10:05;4.75;;;3.15;;
39032;SDS011;24794;51.982;5.878;2023-03-01T04:11:07;5.75;;;3.20;;
39032;SDS011;24794;51.982;5.878;2023-03-01T04:12:26;4.75;;;2.65;;
39032;SDS011;24794;51.982;5.878;2023-03-01T04:13:27;5.50;;;3.10;;
39032;SDS011;24794;51.982;5.878;2023-03-01T04:14:27;6.25;;;3.20;;
39032;SDS011;24794;51.982;5.878;2023-03-01T04:15:28;4.72;;;2.72;;
39032;SDS011;24794;51.982;5.878;2023-03-01T04:16:29;6.85;;;2.80;;
39032;SDS011;24794;51.982;5.878;2023-03-01T04:17:29;3.88;;;2.42;;
39032;SDS011;24794;51.982;5.878;2023-03-01T04:18:30;5.55;;;2.80;;
39032;SDS011;24794;51.982;5.878;2023-03-01T04:19:31;3.88;;;2.92;;
39032;SDS011;24794;51.982;5.878;2023-03-01T04:20:35;4.43;;;2.70;;
39032;SDS011;24794;51.982;5.878;2023-03-01T04:21:36;4.22;;;2.60;;
39032;SDS011;24794;51.982;5.878;2023-03-01T04:22:37;3.78;;;2.42;;
39032;SDS011;24794;51.982;5.878;2023-03-01T04:23:39;2.80;;;2.45;;
39032;SDS011;24794;51.982;5.878;2023-03-01T04:24:40;3.45;;;2.20;;
39032;SDS011;24794;51.982;5.878;2023-03-01T04:25:54;4.28;;;2.40;;
39032;SDS011;24794;51.982;5.878;2023-03-01T04:26:56;4.13;;;2.63;;
39032;SDS011;24794;51.982;5.878;2023-03-01T04:27:57;5.25;;;2.95;;
39032;SDS011;24794;51.982;5.878;2023-03-01T04:28:57;4.15;;;2.55;;
39032;SDS011;24794;51.982;5.878;2023-03-01T04:29:58;4.22;;;2.72;;
39032;SDS011;24794;51.982;5.878;2023-03-01T04:31:01;4.05;;;2.55;;
39032;SDS011;24794;51.982;5.878;2023-03-01T04:32:12;4.28;;;2.38;;
39032;SDS011;24794;51.982;5.878;2023-03-01T04:33:16;4.50;;;2.65;;
39032;SDS011;24794;51.982;5.878;2023-03-01T04:34:17;3.80;;;2.63;;
39032;SDS011;24794;51.982;5.878;2023-03-01T04:35:17;4.63;;;2.70;;
39032;SDS011;24794;51.982;5.878;2023-03-01T04:36:19;5.07;;;2.90;;
39032;SDS011;24794;51.982;5.878;2023-03-01T04:37:21;3.97;;;2.50;;
39032;SDS011;24794;51.982;5.878;2023-03-01T04:38:22;4.35;;;2.22;;
39032;SDS011;24794;51.982;5.878;2023-03-01T04:39:22;5.38;;;3.20;;
39032;SDS011;24794;51.982;5.878;2023-03-01T04:40:23;3.83;;;2.55;;
39032;SDS011;24794;51.982;5.878;2023-03-01T04:41:24;4.97;;;2.83;;
39032;SDS011;24794;51.982;5.878;2023-03-01T04:42:25;4.50;;;3.08;;
39032;SDS011;24794;51.982;5.878;2023-03-01T04:43:26;4.90;;;2.72;;
39032;SDS011;24794;51.982;5.878;2023-03-01T04:44:27;5.25;;;2.85;;
39032;SDS011;24794;51.982;5.878;2023-03-01T04:45:27;4.72;;;2.80;;
39032;SDS011;24794;51.982;5.878;2023-03-01T04:46:28;4.38;;;2.80;;
39032;SDS011;24794;51.982;5.878;2023-03-01T04:47:29;5.78;;;2.83;;
39032;SDS011;24794;51.982;5.878;2023-03-01T04:48:30;4.00;;;2.75;;
39032;SDS011;24794;51.982;5.878;2023-03-01T04:49:31;5.68;;;2.88;;
39032;SDS011;24794;51.982;5.878;2023-03-01T04:50:32;5.05;;;2.88;;
39032;SDS011;24794;51.982;5.878;2023-03-01T04:51:33;4.80;;;3.17;;
39032;SDS011;24794;51.982;5.878;2023-03-01T04:52:33;4.38;;;3.10;;
39032;SDS011;24794;51.982;5.878;2023-03-01T04:53:34;4.38;;;2.65;;
39032;SDS011;24794;51.982;5.878;2023-03-01T04:54:36;4.55;;;2.70;;
39032;SDS011;24794;51.982;5.878;2023-03-01T04:55:37;5.07;;;3.28;;
39032;SDS011;24794;51.982;5.878;2023-03-01T04:56:37;3.83;;;2.88;;
39032;SDS011;24794;51.982;5.878;2023-03-01T04:57:38;4.97;;;2.95;;
39032;SDS011;24794;51.982;5.878;2023-03-01T04:58:39;5.05;;;3.08;;
39032;SDS011;24794;51.982;5.878;2023-03-01T04:59:40;5.60;;;2.80;;
39032;SDS011;24794;51.982;5.878;2023-03-01T05:00:41;5.18;;;3.20;;
39032;SDS011;24794;51.982;5.878;2023-03-01T05:01:41;4.80;;;3.05;;
39032;SDS011;24794;51.982;5.878;2023-03-01T05:02:42;4.47;;;2.72;;
39032;SDS011;24794;51.982;5.878;2023-03-01T05:03:43;4.18;;;2.80;;
39032;SDS011;24794;51.982;5.878;2023-03-01T05:04:45;4.00;;;2.40;;
39032;SDS011;24794;51.982;5.878;2023-03-01T05:05:46;5.00;;;3.03;;
39032;SDS011;24794;51.982;5.878;2023-03-01T05:06:48;5.95;;;2.65;;
39032;SDS011;24794;51.982;5.878;2023-03-01T05:07:49;8.25;;;3.67;;
39032;SDS011;24794;51.982;5.878;2023-03-01T05:08:49;4.03;;;2.67;;
39032;SDS011;24794;51.982;5.878;2023-03-01T05:09:50;4.18;;;2.85;;
39032;SDS011;24794;51.982;5.878;2023-03-01T05:10:51;6.03;;;3.03;;
39032;SDS011;24794;51.982;5.878;2023-03-01T05:11:52;2.83;;;2.47;;
39032;SDS011;24794;51.982;5.878;2023-03-01T05:12:53;4.20;;;2.97;;
39032;SDS011;24794;51.982;5.878;2023-03-01T05:13:54;4.88;;;2.60;;
39032;SDS011;24794;51.982;5.878;2023-03-01T05:14:55;4.88;;;2.83;;
39032;SDS011;24794;51.982;5.878;2023-03-01T05:15:56;4.40;;;2.78;;
39032;SDS011;24794;51.982;5.878;2023-03-01T05:16:59;4.03;;;2.45;;
39032;SDS011;24794;51.982;5.878;2023-03-01T05:18:03;3.97;;;2.70;;
39032;SDS011;24794;51.982;5.878;2023-03-01T05:19:07;4.35;;;2.75;;
39032;SDS011;24794;51.982;5.878;2023-03-01T05:20:15;3.45;;;2.60;;
39032;SDS011;24794;51.982;5.878;2023-03-01T05:21:16;4.18;;;3.00;;
39032;SDS011;24794;51.982;5.878;2023-03-01T05:22:17;3.88;;;3.00;;
39032;SDS011;24794;51.982;5.878;2023-03-01T05:23:19;4.80;;;3.08;;
39032;SDS011;24794;51.982;5.878;2023-03-01T05:24:19;4.40;;;3.10;;
39032;SDS011;24794;51.982;5.878;2023-03-01T05:25:20;5.47;;;3.08;;
39032;SDS011;24794;51.982;5.878;2023-03-01T05:26:21;4.82;;;2.70;;
39032;SDS011;24794;51.982;5.878;2023-03-01T05:27:21;4.30;;;3.05;;
39032;SDS011;24794;51.982;5.878;2023-03-01T05:28:22;6.32;;;2.60;;
39032;SDS011;24794;51.982;5.878;2023-03-01T05:29:23;4.20;;;2.50;;
39032;SDS011;24794;51.982;5.878;2023-03-01T05:30:25;6.00;;;3.10;;
39032;SDS011;24794;51.982;5.878;2023-03-01T05:31:27;4.32;;;2.88;;
39032;SDS011;24794;51.982;5.878;2023-03-01T05:32:27;4.78;;;3.25;;
39032;SDS011;24794;51.982;5.878;2023-03-01T05:33:32;4.55;;;2.88;;
39032;SDS011;24794;51.982;5.878;2023-03-01T05:34:33;4.57;;;2.60;;
39032;SDS011;24794;51.982;5.878;2023-03-01T05:35:36;4.32;;;3.00;;
39032;SDS011;24794;51.982;5.878;2023-03-01T05:36:36;4.55;;;2.40;;
39032;SDS011;24794;51.982;5.878;2023-03-01T05:37:39;4.45;;;3.00;;
39032;SDS011;24794;51.982;5.878;2023-03-01T05:38:43;4.95;;;3.08;;
39032;SDS011;24794;51.982;5.878;2023-03-01T05:39:44;3.63;;;2.53;;
39032;SDS011;24794;51.982;5.878;2023-03-01T05:40:45;3.80;;;2.88;;
39032;SDS011;24794;51.982;5.878;2023-03-01T05:41:47;3.47;;;2.40;;
39032;SDS011;24794;51.982;5.878;2023-03-01T05:42:49;6.78;;;3.35;;
39032;SDS011;24794;51.982;5.878;2023-03-01T05:43:52;4.18;;;2.85;;
39032;SDS011;24794;51.982;5.878;2023-03-01T05:44:52;4.65;;;2.72;;
39032;SDS011;24794;51.982;5.878;2023-03-01T05:45:53;5.40;;;2.70;;
39032;SDS011;24794;51.982;5.878;2023-03-01T05:46:54;5.13;;;3.00;;
39032;SDS011;24794;51.982;5.878;2023-03-01T05:47:55;4.25;;;2.53;;
39032;SDS011;24794;51.982;5.878;2023-03-01T05:48:55;4.80;;;2.63;;
39032;SDS011;24794;51.982;5.878;2023-03-01T05:49:56;5.68;;;2.63;;
39032;SDS011;24794;51.982;5.878;2023-03-01T05:50:58;4.95;;;3.00;;
39032;SDS011;24794;51.982;5.878;2023-03-01T05:52:00;6.05;;;2.78;;
39032;SDS011;24794;51.982;5.878;2023-03-01T05:53:02;4.15;;;2.95;;
39032;SDS011;24794;51.982;5.878;2023-03-01T05:54:08;3.47;;;2.42;;
39032;SDS011;24794;51.982;5.878;2023-03-01T05:55:09;4.43;;;3.42;;
39032;SDS011;24794;51.982;5.878;2023-03-01T05:56:09;5.60;;;3.00;;
39032;SDS011;24794;51.982;5.878;2023-03-01T05:57:10;3.92;;;2.60;;
39032;SDS011;24794;51.982;5.878;2023-03-01T05:58:12;3.88;;;2.47;;
39032;SDS011;24794;51.982;5.878;2023-03-01T05:59:14;4.30;;;2.80;;
39032;SDS011;24794;51.982;5.878;2023-03-01T06:00:16;5.60;;;2.90;;
39032;SDS011;24794;51.982;5.878;2023-03-01T06:01:19;5.28;;;3.28;;
39032;SDS011;24794;51.982;5.878;2023-03-01T06:02:19;5.07;;;2.65;;
39032;SDS011;24794;51.982;5.878;2023-03-01T06:03:20;5.97;;;3.50;;
39032;SDS011;24794;51.982;5.878;2023-03-01T06:04:20;4.38;;;2.60;;
39032;SDS011;24794;51.982;5.878;2023-03-01T06:05:21;4.97;;;2.72;;
39032;SDS011;24794;51.982;5.878;2023-03-01T06:06:22;5.95;;;3.50;;
39032;SDS011;24794;51.982;5.878;2023-03-01T06:07:23;4.47;;;3.20;;
39032;SDS011;24794;51.982;5.878;2023-03-01T06:08:24;4.68;;;3.20;;
39032;SDS011;24794;51.982;5.878;2023-03-01T06:09:27;4.88;;;3.03;;
39032;SDS011;24794;51.982;5.878;2023-03-01T06:10:27;3.78;;;3.00;;
39032;SDS011;24794;51.982;5.878;2023-03-01T06:11:29;5.13;;;3.30;;
39032;SDS011;24794;51.982;5.878;2023-03-01T06:12:30;5.28;;;3.22;;
39032;SDS011;24794;51.982;5.878;2023-03-01T06:13:34;4.75;;;3.10;;
39032;SDS011;24794;51.982;5.878;2023-03-01T06:14:35;5.07;;;2.63;;
39032;SDS011;24794;51.982;5.878;2023-03-01T06:15:36;4.95;;;2.72;;
39032;SDS011;24794;51.982;5.878;2023-03-01T06:16:37;4.55;;;3.42;;
39032;SDS011;24794;51.982;5.878;2023-03-01T06:17:38;4.53;;;2.65;;
39032;SDS011;24794;51.982;5.878;2023-03-01T06:18:40;5.97;;;3.55;;
39032;SDS011;24794;51.982;5.878;2023-03-01T06:19:41;6.20;;;2.97;;
39032;SDS011;24794;51.982;5.878;2023-03-01T06:20:41;9.02;;;3.42;;
39032;SDS011;24794;51.982;5.878;2023-03-01T06:21:42;5.00;;;3.03;;
39032;SDS011;24794;51.982;5.878;2023-03-01T06:22:43;5.32;;;2.83;;
39032;SDS011;24794;51.982;5.878;2023-03-01T06:23:44;11.55;;;3.53;;
39032;SDS011;24794;51.982;5.878;2023-03-01T06:24:44;5.20;;;3.38;;
39032;SDS011;24794;51.982;5.878;2023-03-01T06:25:45;4.40;;;2.72;;
39032;SDS011;24794;51.982;5.878;2023-03-01T06:26:45;6.20;;;3.47;;
39032;SDS011;24794;51.982;5.878;2023-03-01T06:27:46;5.45;;;3.40;;
39032;SDS011;24794;51.982;5.878;2023-03-01T06:28:48;6.50;;;3.85;;